createdAt,value
2017-06-23T00:01:21.655Z,19.90
2017-06-23T00:03:49.208Z,20.00
2017-06-23T00:06:16.721Z,20.00
2017-06-23T00:08:44.570Z,20.00
2017-06-23T00:11:12.120Z,20.00
2017-06-23T00:13:39.658Z,20.00
2017-06-23T00:16:07.553Z,20.10
2017-06-23T00:18:35.064Z,20.00
2017-06-23T00:21:03.362Z,20.00
2017-06-23T00:23:31.255Z,20.00
2017-06-23T00:25:58.770Z,20.00
2017-06-23T00:28:26.332Z,20.10
2017-06-23T00:30:54.920Z,20.10
2017-06-23T00:33:23.247Z,20.10
2017-06-23T00:35:50.754Z,20.10
2017-06-23T00:38:19.402Z,20.10
2017-06-23T00:40:46.937Z,20.00
2017-06-23T00:43:14.445Z,20.10
2017-06-23T00:45:42.398Z,20.10
2017-06-23T00:48:09.916Z,20.10
2017-06-23T00:50:37.439Z,20.10
2017-06-23T00:53:06.067Z,20.20
2017-06-23T00:55:33.598Z,20.10
2017-06-23T00:58:01.886Z,20.20
2017-06-23T01:00:29.720Z,20.10
2017-06-23T01:02:57.239Z,20.10
2017-06-23T01:05:24.761Z,20.10
2017-06-23T01:07:53.404Z,20.10
2017-06-23T01:10:20.920Z,20.10
2017-06-23T01:12:48.466Z,20.10
2017-06-23T01:15:17.063Z,20.00
2017-06-23T01:17:44.569Z,20.00
2017-06-23T01:20:12.110Z,20.00
2017-06-23T01:22:39.936Z,20.00
2017-06-23T01:25:07.444Z,20.00
2017-06-23T01:27:34.966Z,20.00
2017-06-23T01:30:02.867Z,20.10
2017-06-23T01:32:30.419Z,20.00
2017-06-23T01:34:57.965Z,20.10
2017-06-23T01:37:25.861Z,20.10
2017-06-23T01:39:53.378Z,20.10
2017-06-23T01:42:21.659Z,20.10
2017-06-23T01:44:50.288Z,20.10
2017-06-23T01:47:17.813Z,20.10
2017-06-23T01:49:45.338Z,20.20
2017-06-23T01:52:13.282Z,20.10
2017-06-23T01:54:40.811Z,20.20
2017-06-23T01:57:08.334Z,20.20
2017-06-23T01:59:36.254Z,20.20
2017-06-23T02:02:03.767Z,20.30
2017-06-23T02:04:31.319Z,20.30
2017-06-23T02:06:59.262Z,20.30
2017-06-23T02:09:26.781Z,20.40
2017-06-23T02:11:54.288Z,20.40
2017-06-23T02:14:22.232Z,20.40
2017-06-23T02:16:49.759Z,20.40
2017-06-23T02:19:18.037Z,20.30
2017-06-23T02:21:45.879Z,20.30
2017-06-23T02:24:13.414Z,20.20
2017-06-23T02:26:40.949Z,20.10
2017-06-23T02:29:08.777Z,20.10
2017-06-23T02:31:36.298Z,20.00
2017-06-23T02:34:03.808Z,20.00
2017-06-23T02:36:31.695Z,19.90
2017-06-23T02:38:59.210Z,19.90
2017-06-23T02:41:26.736Z,19.90
2017-06-23T02:43:54.551Z,19.90
2017-06-23T02:46:22.061Z,19.80
2017-06-23T02:48:49.579Z,19.80
2017-06-23T02:51:18.194Z,19.80
2017-06-23T02:53:45.707Z,19.80
2017-06-23T02:56:13.217Z,19.80
2017-06-23T02:58:41.045Z,19.90
2017-06-23T03:01:09.339Z,19.90
2017-06-23T03:03:36.853Z,19.90
2017-06-23T03:06:04.811Z,19.90
2017-06-23T03:08:32.324Z,20.00
2017-06-23T03:10:59.838Z,20.00
2017-06-23T03:13:27.771Z,20.00
2017-06-23T03:15:55.298Z,20.00
2017-06-23T03:18:23.589Z,20.10
2017-06-23T03:20:51.414Z,20.10
2017-06-23T03:23:18.939Z,20.10
2017-06-23T03:25:46.477Z,20.20
2017-06-23T03:28:14.308Z,20.20
2017-06-23T03:30:41.834Z,20.30
2017-06-23T03:33:09.360Z,20.30
2017-06-23T03:35:37.173Z,20.40
2017-06-23T03:38:04.711Z,20.40
2017-06-23T03:40:32.243Z,20.40
2017-06-23T03:43:00.867Z,20.40
2017-06-23T03:45:28.398Z,20.40
2017-06-23T03:47:55.938Z,20.40
2017-06-23T03:56:00.542Z,20.40
2017-06-23T03:58:28.104Z,20.40
2017-06-23T04:00:55.699Z,20.40
2017-06-23T04:03:23.546Z,20.40
2017-06-23T04:05:51.089Z,20.40
2017-06-23T04:08:18.593Z,20.50
2017-06-23T04:10:46.440Z,20.50
2017-06-23T04:13:13.961Z,20.50
2017-06-23T04:15:41.475Z,20.50
2017-06-23T04:18:09.296Z,20.50
2017-06-23T04:20:36.811Z,20.60
2017-06-23T04:23:04.338Z,20.60
2017-06-23T04:25:32.133Z,20.60
2017-06-23T04:27:59.640Z,20.60
2017-06-23T04:30:27.164Z,20.60
2017-06-23T04:32:55.808Z,20.70
2017-06-23T04:35:23.340Z,20.70
2017-06-23T04:37:50.864Z,20.70
2017-06-23T04:40:19.488Z,20.80
2017-06-23T04:42:47.002Z,20.80
2017-06-23T04:45:14.533Z,20.80
2017-06-23T04:47:42.351Z,20.80
2017-06-23T04:50:10.637Z,20.80
2017-06-23T04:52:38.176Z,20.80
2017-06-23T04:55:06.914Z,20.80
2017-06-23T04:57:34.427Z,20.80
2017-06-23T05:00:02.716Z,20.90
2017-06-23T05:02:30.561Z,20.90
2017-06-23T05:04:58.176Z,21.00
2017-06-23T05:07:25.680Z,21.00
2017-06-23T05:09:53.526Z,21.00
2017-06-23T05:12:21.158Z,21.00
2017-06-23T05:14:48.713Z,21.00
2017-06-23T05:17:16.518Z,21.10
2017-06-23T05:19:44.045Z,21.00
2017-06-23T05:22:11.553Z,21.00
2017-06-23T05:24:39.346Z,21.00
2017-06-23T05:27:09.961Z,21.10
2017-06-23T05:29:43.979Z,21.10
2017-06-23T05:32:17.638Z,21.10
2017-06-23T05:34:45.617Z,21.20
2017-06-23T05:37:20.138Z,21.20
2017-06-23T05:42:49.425Z,21.40
2017-06-23T05:45:22.834Z,21.40
2017-06-23T05:47:56.891Z,21.50
2017-06-23T05:50:25.835Z,21.70
2017-06-23T05:52:59.837Z,21.60
2017-06-23T05:55:27.377Z,21.70
2017-06-23T05:57:54.904Z,21.70
2017-06-23T06:00:22.724Z,21.70
2017-06-23T06:02:50.256Z,21.80
2017-06-23T06:05:18.536Z,21.80
2017-06-23T06:07:54.625Z,21.80
2017-06-23T06:10:29.807Z,21.80
2017-06-23T06:13:01.362Z,21.80
2017-06-23T06:15:32.214Z,21.80
2017-06-23T06:18:07.066Z,21.70
2017-06-23T06:20:38.522Z,21.70
2017-06-23T06:23:12.698Z,21.60
2017-06-23T06:25:40.229Z,21.60
2017-06-23T06:28:11.187Z,21.60
2017-06-23T06:31:02.556Z,21.60
2017-06-23T06:33:38.539Z,21.60
2017-06-23T06:36:19.220Z,21.60
2017-06-23T06:38:48.366Z,21.60
2017-06-23T06:41:19.611Z,21.60
2017-06-23T06:43:59.580Z,21.60
2017-06-23T06:46:36.994Z,21.70
2017-06-23T06:49:14.469Z,21.80
2017-06-23T06:51:46.125Z,21.90
2017-06-23T06:54:23.275Z,22.00
2017-06-23T06:56:58.376Z,22.10
2017-06-23T06:59:32.067Z,22.20
2017-06-23T07:02:05.644Z,22.20
2017-06-23T07:04:40.448Z,22.20
2017-06-23T07:07:14.818Z,22.20
2017-06-23T07:09:50.515Z,22.20
2017-06-23T07:12:22.019Z,22.10
2017-06-23T07:14:59.448Z,22.10
2017-06-23T07:17:36.880Z,22.20
2017-06-23T07:20:17.134Z,22.10
2017-06-23T07:22:48.321Z,22.10
2017-06-23T07:25:21.741Z,22.10
2017-06-23T07:27:56.742Z,22.00
2017-06-23T07:30:25.769Z,22.00
2017-06-23T07:32:56.919Z,22.10
2017-06-23T07:35:27.663Z,22.10
2017-06-23T07:37:59.117Z,22.10
2017-06-23T07:40:34.463Z,22.10
2017-06-23T07:43:06.121Z,22.00
2017-06-23T07:45:36.867Z,22.00
2017-06-23T07:48:11.802Z,22.00
2017-06-23T07:50:45.568Z,22.00
2017-06-23T07:53:19.962Z,22.10
2017-06-23T07:55:54.630Z,22.10
2017-06-23T07:58:29.505Z,22.10
2017-06-23T08:01:02.694Z,22.10
2017-06-23T08:03:34.131Z,22.20
2017-06-23T08:06:07.816Z,22.20
2017-06-23T08:08:39.311Z,22.20
2017-06-23T08:11:12.790Z,22.20
2017-06-23T08:13:42.335Z,22.20
2017-06-23T08:16:17.683Z,22.30
2017-06-23T08:18:51.851Z,22.30
2017-06-23T08:21:27.303Z,22.30
2017-06-23T08:24:02.513Z,22.30
2017-06-23T08:26:36.556Z,22.40
2017-06-23T08:29:10.973Z,22.40
2017-06-23T08:31:44.565Z,22.40
2017-06-23T08:34:18.039Z,22.30
2017-06-23T08:36:51.820Z,22.30
2017-06-23T08:39:22.569Z,22.40
2017-06-23T08:41:55.845Z,22.40
2017-06-23T08:44:30.125Z,22.60
2017-06-23T08:47:16.956Z,22.70
2017-06-23T08:49:50.740Z,22.80
2017-06-23T08:52:21.787Z,22.80
2017-06-23T08:54:59.852Z,22.90
2017-06-23T08:57:37.427Z,22.90
2017-06-23T09:00:13.108Z,22.90
2017-06-23T09:02:50.947Z,22.90
2017-06-23T09:05:27.167Z,22.90
2017-06-23T09:08:02.919Z,22.90
2017-06-23T09:10:37.271Z,22.90
2017-06-23T09:13:11.818Z,23.00
2017-06-23T09:15:43.399Z,23.00
2017-06-23T09:18:20.764Z,23.10
2017-06-23T09:20:52.110Z,23.10
2017-06-23T09:23:32.153Z,23.10
2017-06-23T09:26:07.551Z,23.10
2017-06-23T09:28:42.430Z,23.20
2017-06-23T09:31:17.722Z,23.30
2017-06-23T09:33:53.678Z,23.30
2017-06-23T09:36:31.977Z,23.40
2017-06-23T09:39:06.691Z,23.50
2017-06-23T09:41:46.922Z,23.70
2017-06-23T09:44:21.647Z,23.80
2017-06-23T09:46:56.015Z,23.90
2017-06-23T09:49:30.711Z,23.90
2017-06-23T09:52:04.211Z,23.90
2017-06-23T09:54:42.134Z,23.90
2017-06-23T09:57:17.264Z,23.90
2017-06-23T09:59:55.219Z,23.90
2017-06-23T10:02:26.645Z,23.90
2017-06-23T10:05:04.118Z,23.90
2017-06-23T10:07:40.192Z,23.90
2017-06-23T10:10:14.882Z,23.80
2017-06-23T10:12:50.192Z,23.80
2017-06-23T10:15:26.084Z,23.90
2017-06-23T10:18:06.221Z,23.90
2017-06-23T10:20:46.060Z,23.90
2017-06-23T10:23:22.370Z,24.00
2017-06-23T10:25:53.232Z,24.00
2017-06-23T10:28:28.291Z,23.90
2017-06-23T10:30:59.445Z,23.90
2017-06-23T10:33:34.544Z,23.90
2017-06-23T10:36:12.275Z,23.80
2017-06-23T10:38:46.442Z,23.80
2017-06-23T10:41:17.580Z,23.80
2017-06-23T10:43:52.398Z,23.80
2017-06-23T10:46:25.998Z,23.80
2017-06-23T10:49:01.211Z,23.80
2017-06-23T10:51:34.667Z,23.80
2017-06-23T10:54:15.686Z,23.70
2017-06-23T10:56:53.649Z,23.70
2017-06-23T10:59:28.071Z,23.70
2017-06-23T11:02:03.864Z,23.80
2017-06-23T11:04:42.208Z,23.80
2017-06-23T11:07:19.746Z,23.90
2017-06-23T11:09:55.945Z,24.10
2017-06-23T11:12:27.073Z,24.20
2017-06-23T11:15:02.259Z,24.40
2017-06-23T11:17:37.714Z,24.40
2017-06-23T11:20:12.167Z,24.60
2017-06-23T11:22:47.590Z,24.60
2017-06-23T11:25:25.774Z,24.60
2017-06-23T11:28:00.261Z,24.70
2017-06-23T11:30:36.295Z,24.80
2017-06-23T11:33:10.372Z,24.90
2017-06-23T11:35:51.232Z,25.20
2017-06-23T11:38:22.270Z,25.50
2017-06-23T11:40:56.263Z,25.90
2017-06-23T11:43:30.883Z,26.20
2017-06-23T11:46:06.109Z,26.80
2017-06-23T11:48:37.068Z,27.50
2017-06-23T11:51:11.270Z,28.00
2017-06-23T11:53:46.855Z,28.80
2017-06-23T11:56:25.148Z,29.20
2017-06-23T11:58:59.713Z,29.50
2017-06-23T12:01:33.934Z,29.80
2017-06-23T12:04:11.903Z,30.00
2017-06-23T12:06:46.426Z,30.30
2017-06-23T12:09:21.863Z,30.50
2017-06-23T12:11:55.937Z,30.80
2017-06-23T12:17:25.011Z,30.30
2017-06-23T12:20:02.388Z,29.90
2017-06-23T12:22:33.628Z,29.60
2017-06-23T12:25:18.034Z,29.40
2017-06-23T12:28:03.200Z,29.00
2017-06-23T12:30:34.394Z,28.90
2017-06-23T12:38:48.384Z,29.30
2017-06-23T12:41:15.889Z,28.90
2017-06-23T12:43:43.472Z,29.20
2017-06-23T12:46:11.358Z,30.00
2017-06-23T12:48:40.381Z,30.40
2017-06-23T12:51:07.912Z,30.50
2017-06-23T12:53:39.112Z,30.50
2017-06-23T12:56:09.540Z,30.80
2017-06-23T12:58:50.991Z,31.90
2017-06-23T13:04:28.884Z,32.40
2017-06-23T13:06:59.705Z,33.00
2017-06-23T13:09:31.110Z,33.60
2017-06-23T13:12:02.319Z,33.70
2017-06-23T13:14:39.997Z,33.60
2017-06-23T13:17:17.666Z,33.90
2017-06-23T13:19:54.022Z,34.50
2017-06-23T13:22:25.056Z,34.60
2017-06-23T13:24:58.841Z,34.40
2017-06-23T13:27:32.455Z,34.60
2017-06-23T13:30:04.067Z,34.70
2017-06-23T13:32:34.810Z,34.80
2017-06-23T13:35:09.632Z,35.00
2017-06-23T13:37:40.652Z,35.30
2017-06-23T13:40:12.522Z,35.30
2017-06-23T13:42:40.819Z,35.20
2017-06-23T13:45:08.361Z,35.20
2017-06-23T13:47:36.990Z,34.80
2017-06-23T13:50:04.498Z,34.70
2017-06-23T13:52:32.801Z,34.50
2017-06-23T13:55:00.618Z,34.50
2017-06-23T13:57:28.129Z,34.60
2017-06-23T13:59:55.643Z,34.90
2017-06-23T14:02:23.517Z,35.10
2017-06-23T14:04:51.018Z,35.40
2017-06-23T14:07:18.556Z,35.80
2017-06-23T14:09:46.499Z,36.20
2017-06-23T14:12:14.010Z,36.60
2017-06-23T14:14:41.523Z,36.60
2017-06-23T14:17:09.362Z,36.50
2017-06-23T14:19:36.874Z,36.50
2017-06-23T14:22:05.149Z,35.80
2017-06-23T14:24:33.716Z,35.50
2017-06-23T14:27:01.228Z,35.50
2017-06-23T14:29:28.764Z,35.30
2017-06-23T14:31:56.770Z,35.40
2017-06-23T14:34:24.349Z,35.30
2017-06-23T14:36:51.868Z,35.20
2017-06-23T14:39:19.744Z,34.80
2017-06-23T14:41:47.252Z,34.70
2017-06-23T14:44:14.757Z,34.60
2017-06-23T14:46:42.551Z,34.60
2017-06-23T14:49:10.085Z,34.90
2017-06-23T14:51:37.608Z,35.10
2017-06-23T14:54:05.418Z,35.20
2017-06-23T14:56:32.935Z,35.30
2017-06-23T14:59:00.457Z,35.40
2017-06-23T15:01:28.315Z,35.20
2017-06-23T15:03:55.866Z,35.20
2017-06-23T15:06:23.380Z,35.10
2017-06-23T15:08:51.295Z,35.10
2017-06-23T15:11:18.841Z,35.10
2017-06-23T15:13:46.358Z,35.30
2017-06-23T15:16:15.020Z,35.50
2017-06-23T15:18:48.657Z,35.50
2017-06-23T15:21:16.494Z,35.60
2017-06-23T15:23:56.549Z,35.70
2017-06-23T15:26:24.364Z,35.70
2017-06-23T15:28:51.882Z,35.80
2017-06-23T15:31:19.423Z,35.80
2017-06-23T15:33:47.286Z,35.70
2017-06-23T15:36:15.611Z,35.20
2017-06-23T15:38:43.127Z,35.00
2017-06-23T15:41:10.971Z,35.00
2017-06-23T15:46:38.071Z,35.10
2017-06-23T15:49:15.449Z,35.00
2017-06-23T15:51:49.291Z,34.80
2017-06-23T15:54:16.820Z,34.60
2017-06-23T15:56:44.356Z,34.40
2017-06-23T15:59:19.587Z,34.50
2017-06-23T16:01:50.620Z,34.50
2017-06-23T16:04:26.448Z,34.50
2017-06-23T16:06:53.958Z,34.50
2017-06-23T16:09:21.478Z,34.40
2017-06-23T16:11:49.303Z,34.20
2017-06-23T16:14:16.836Z,34.00
2017-06-23T16:16:44.374Z,34.00
2017-06-23T16:19:12.193Z,34.00
2017-06-23T16:21:39.730Z,34.00
2017-06-23T16:24:26.914Z,33.80
2017-06-23T16:26:57.443Z,33.40
2017-06-23T16:29:28.587Z,33.10
2017-06-23T16:31:59.442Z,32.60
2017-06-23T16:34:35.201Z,32.40
2017-06-23T16:37:06.352Z,32.20
2017-06-23T16:39:44.503Z,31.90
2017-06-23T16:42:15.625Z,31.70
2017-06-23T16:44:43.162Z,31.30
2017-06-23T16:47:11.781Z,30.70
2017-06-23T16:49:39.344Z,30.60
2017-06-23T16:52:06.880Z,30.40
2017-06-23T16:54:34.702Z,30.20
2017-06-23T16:57:02.250Z,30.00
2017-06-23T16:59:29.784Z,29.90
2017-06-23T17:01:57.661Z,29.70
2017-06-23T17:04:25.180Z,29.50
2017-06-23T17:06:53.489Z,29.10
2017-06-23T17:09:21.367Z,29.10
2017-06-23T17:11:48.909Z,29.00
2017-06-23T17:14:16.423Z,28.80
2017-06-23T17:16:44.385Z,28.60
2017-06-23T17:19:11.920Z,28.50
2017-06-23T17:21:39.430Z,28.30
2017-06-23T17:24:07.266Z,28.10
2017-06-23T17:26:34.834Z,28.00
2017-06-23T17:29:02.362Z,27.90
2017-06-23T17:31:30.230Z,27.90
2017-06-23T17:33:57.774Z,27.90
2017-06-23T17:36:25.294Z,27.90
2017-06-23T17:38:53.082Z,28.00
2017-06-23T17:41:20.625Z,28.20
2017-06-23T17:43:48.909Z,28.80
2017-06-23T17:46:16.905Z,28.80
2017-06-23T17:48:44.437Z,29.10
2017-06-23T17:51:12.741Z,29.30
2017-06-23T17:53:40.634Z,29.20
2017-06-23T17:56:08.158Z,29.30
2017-06-23T17:58:35.698Z,29.20
2017-06-23T18:01:03.613Z,29.30
2017-06-23T18:03:31.165Z,29.30
2017-06-23T18:05:58.977Z,29.30
2017-06-23T18:08:27.501Z,29.20
2017-06-23T18:10:55.037Z,29.00
2017-06-23T18:13:24.220Z,28.80
2017-06-23T18:15:52.628Z,28.70
2017-06-23T18:18:20.471Z,28.70
2017-06-23T18:20:48.567Z,28.60
2017-06-23T18:23:16.699Z,28.50
2017-06-23T18:25:45.051Z,28.30
2017-06-23T18:28:13.501Z,27.90
2017-06-23T18:30:42.095Z,27.60
2017-06-23T18:33:09.620Z,27.60
2017-06-23T18:35:37.145Z,27.40
2017-06-23T18:38:05.029Z,27.20
2017-06-23T18:40:32.567Z,27.00
2017-06-23T18:43:00.109Z,26.80
2017-06-23T18:45:27.920Z,26.50
2017-06-23T18:47:55.453Z,26.30
2017-06-23T18:50:22.988Z,26.10
2017-06-23T18:52:51.704Z,25.90
2017-06-23T18:55:19.233Z,25.90
2017-06-23T18:57:46.767Z,25.80
2017-06-23T19:00:15.205Z,25.80
2017-06-23T19:02:42.724Z,25.70
2017-06-23T19:05:10.299Z,25.70
2017-06-23T19:07:38.110Z,25.60
2017-06-23T19:10:05.666Z,25.50
2017-06-23T19:12:33.198Z,25.50
2017-06-23T19:15:01.027Z,25.40
2017-06-23T19:17:28.555Z,25.30
2017-06-23T19:19:56.078Z,25.30
2017-06-23T19:22:23.890Z,25.30
2017-06-23T19:24:51.447Z,25.20
2017-06-23T19:27:19.060Z,25.10
2017-06-23T19:29:47.094Z,25.00
2017-06-23T19:32:14.620Z,25.00
2017-06-23T19:34:42.159Z,24.90
2017-06-23T19:37:10.019Z,24.90
2017-06-23T19:39:37.523Z,24.80
2017-06-23T19:42:05.048Z,24.80
2017-06-23T19:44:32.933Z,24.90
2017-06-23T19:47:00.471Z,24.80
2017-06-23T19:49:28.002Z,24.70
2017-06-23T19:51:55.939Z,24.80
2017-06-23T19:54:23.482Z,24.70
2017-06-23T19:56:51.032Z,24.70
2017-06-23T19:59:18.978Z,24.60
2017-06-23T20:01:47.266Z,24.60
2017-06-23T20:04:14.791Z,24.60
2017-06-23T20:06:42.621Z,24.60
2017-06-23T20:09:10.210Z,24.60
2017-06-23T20:17:27.029Z,24.40
2017-06-23T20:19:58.027Z,24.30
2017-06-23T20:22:29.132Z,24.30
2017-06-23T20:25:00.278Z,24.30
2017-06-23T20:27:35.475Z,24.20
2017-06-23T20:33:06.201Z,24.20
2017-06-23T20:35:44.314Z,24.10
2017-06-23T20:41:08.462Z,24.00
2017-06-23T20:43:43.860Z,23.90
2017-06-23T20:46:22.202Z,23.80
2017-06-23T20:48:57.083Z,23.80
2017-06-23T20:51:27.821Z,23.70
2017-06-23T20:53:58.702Z,23.70
2017-06-23T20:56:32.951Z,23.60
2017-06-23T20:59:10.875Z,23.60
2017-06-23T21:01:49.295Z,23.60
2017-06-23T21:04:27.191Z,23.50
2017-06-23T21:07:05.677Z,23.50
2017-06-23T21:09:43.233Z,23.40
2017-06-23T21:12:14.542Z,23.30
2017-06-23T21:14:51.891Z,23.30
2017-06-23T21:17:32.024Z,23.30
2017-06-23T21:20:06.826Z,23.10
2017-06-23T21:22:37.653Z,23.10
2017-06-23T21:25:13.165Z,23.00
2017-06-23T21:27:42.556Z,22.90
2017-06-23T21:30:19.781Z,22.90
2017-06-23T21:32:54.916Z,22.90
2017-06-23T21:35:30.841Z,22.80
2017-06-23T21:38:06.128Z,22.70
2017-06-23T21:40:49.078Z,22.70
2017-06-23T21:43:20.204Z,22.70
2017-06-23T21:45:55.340Z,22.70
2017-06-23T21:48:28.961Z,22.60
2017-06-23T21:50:59.670Z,22.60
2017-06-23T21:53:37.659Z,22.60
2017-06-23T21:56:15.763Z,22.60
2017-06-23T21:58:51.011Z,22.60
2017-06-23T22:01:31.573Z,22.60
2017-06-23T22:04:07.009Z,22.60
2017-06-23T22:06:41.953Z,22.60
2017-06-23T22:09:20.286Z,22.60
2017-06-23T22:11:50.937Z,22.50
2017-06-23T22:14:22.267Z,22.50
2017-06-23T22:16:57.899Z,22.50
2017-06-23T22:19:38.646Z,22.50
2017-06-23T22:22:09.761Z,22.50
2017-06-23T22:24:50.315Z,22.50
2017-06-23T22:27:24.336Z,22.40
2017-06-23T22:30:00.360Z,22.40
2017-06-23T22:32:31.596Z,22.50
2017-06-23T22:35:09.425Z,22.40
2017-06-23T22:37:40.296Z,22.40
2017-06-23T22:40:15.601Z,22.40
2017-06-23T22:42:52.935Z,22.50
2017-06-23T22:45:30.409Z,22.50
2017-06-23T22:48:05.717Z,22.60
2017-06-23T22:50:37.395Z,22.60
2017-06-23T22:53:14.879Z,22.60
2017-06-23T22:55:44.206Z,22.70
2017-06-23T22:58:17.477Z,22.70
2017-06-23T23:00:53.289Z,22.70
2017-06-23T23:03:31.222Z,22.80
2017-06-23T23:06:05.564Z,22.90
2017-06-23T23:08:36.400Z,22.90
2017-06-23T23:11:07.707Z,22.90
2017-06-23T23:13:43.264Z,22.80
2017-06-23T23:16:15.003Z,22.80
2017-06-23T23:18:48.363Z,22.80
2017-06-23T23:21:22.435Z,22.80
2017-06-23T23:24:09.009Z,22.70
2017-06-23T23:26:40.111Z,22.70
2017-06-23T23:29:10.745Z,22.70
2017-06-23T23:31:41.869Z,22.60
2017-06-23T23:34:15.232Z,22.60
2017-06-23T23:36:46.745Z,22.50
2017-06-23T23:39:20.007Z,22.50
2017-06-23T23:41:53.846Z,22.50
2017-06-23T23:44:27.185Z,22.40
2017-06-23T23:47:01.275Z,22.40
2017-06-23T23:49:36.937Z,22.40
2017-06-23T23:52:26.398Z,22.40
2017-06-23T23:54:56.932Z,22.40
